Time;durP1;ratioP1;P1;durP2;ratioP2;P2;SDS_P1;SDS_P2;PMS_P1;PMS_P2;Temp;Humidity;BMP_temperature;BMP_pressure;BME280_temperature;BME280_humidity;BME280_pressure;Samples;Min_cycle;Max_cycle;Signal;HPM_P1;HPM_P2
2024/04/09 00:01:38;;;;;;;;;;;;;;;19.06;45.50;96218.55;108905;1276;124219;-89
2024/04/09 00:04:05;;;;;;;;;;;;;;;19.07;45.47;96215.61;109082;1262;22519;-90
2024/04/09 00:06:31;;;;;;;;;;;;;;;19.05;45.43;96218.16;108951;1277;24142;-89
2024/04/09 00:08:58;;;;;;;;;;;;;;;19.05;45.46;96221.12;108980;1275;124823;-90
2024/04/09 00:11:24;;;;;;;;;;;;;;;19.05;45.61;96219.91;108959;1274;22479;-90
2024/04/09 00:13:52;;;;;;;;;;;;;;;19.03;45.58;96218.48;109023;1269;124894;-89
2024/04/09 00:16:22;;;;;;;;;;;;;;;19.00;45.68;96213.91;109096;1276;22533;-90
2024/04/09 00:18:54;;;;;;;;;;;;;;;18.98;45.63;96212.19;109155;1276;22489;-90
2024/04/09 00:21:24;;;;;;;;;;;;;;;18.97;45.98;96209.75;108964;1277;124585;-90
2024/04/09 00:23:50;;;;;;;;;;;;;;;18.92;46.02;96210.00;109040;1270;22505;-90
2024/04/09 00:26:17;;;;;;;;;;;;;;;18.88;46.06;96207.20;108872;1277;124186;-90
2024/04/09 00:28:43;;;;;;;;;;;;;;;18.88;45.67;96205.83;109013;1277;22526;-90
2024/04/09 00:31:10;;;;;;;;;;;;;;;18.91;45.39;96201.08;108961;1276;124237;-89
2024/04/09 00:33:36;;;;;;;;;;;;;;;18.91;45.45;96201.50;109099;1270;22529;-90
2024/04/09 00:36:03;;;;;;;;;;;;;;;18.91;46.13;96199.34;109063;1276;24232;-90
2024/04/09 00:38:30;;;;;;;;;;;;;;;18.85;45.79;96198.50;108990;1274;124764;-90
2024/04/09 00:40:57;;;;;;;;;;;;;;;18.85;45.95;96201.18;109077;1276;23008;-90
2024/04/09 00:43:24;;;;;;;;;;;;;;;18.85;45.79;96199.70;109133;1276;124162;-89
2024/04/09 00:45:50;;;;;;;;;;;;;;;18.85;45.87;96196.33;109104;1276;24254;-91
2024/04/09 00:48:17;;;;;;;;;;;;;;;18.82;45.92;96195.77;109081;1276;22668;-91
2024/04/09 00:50:45;;;;;;;;;;;;;;;18.79;45.84;96197.40;108989;1276;124210;-90
2024/04/09 00:53:11;;;;;;;;;;;;;;;18.77;45.99;96197.74;109126;1276;22501;-90
2024/04/09 00:55:42;;;;;;;;;;;;;;;18.75;45.75;96190.86;108995;1277;124224;-91
2024/04/09 00:58:09;;;;;;;;;;;;;;;18.76;45.97;96192.63;109098;1276;22531;-89
2024/04/09 01:00:36;;;;;;;;;;;;;;;18.75;46.09;96190.39;109084;1276;22555;-90
2024/04/09 01:03:02;;;;;;;;;;;;;;;18.72;46.31;96196.39;108986;1276;124020;-90
2024/04/09 01:05:30;;;;;;;;;;;;;;;18.69;46.19;96197.17;109122;1276;22949;-89
2024/04/09 01:07:56;;;;;;;;;;;;;;;18.69;46.13;96201.02;109081;1276;124048;-91
2024/04/09 01:10:23;;;;;;;;;;;;;;;18.69;46.10;96202.16;108890;1277;22683;-90
2024/04/09 01:12:50;;;;;;;;;;;;;;;18.69;46.33;96201.95;109093;1272;22553;-90
2024/04/09 01:15:17;;;;;;;;;;;;;;;18.67;46.35;96208.52;108855;1277;124541;-90
2024/04/09 01:17:43;;;;;;;;;;;;;;;18.65;46.39;96205.89;109068;1275;22517;-89
2024/04/09 01:20:13;;;;;;;;;;;;;;;18.65;46.35;96210.48;108950;1270;124042;-88
2024/04/09 01:22:39;;;;;;;;;;;;;;;18.64;46.53;96204.76;109065;1272;23766;-89
2024/04/09 01:25:08;;;;;;;;;;;;;;;18.60;46.52;96207.73;109046;1276;23288;-90
2024/04/09 01:27:37;;;;;;;;;;;;;;;18.55;47.01;96204.22;109354;1269;22523;-89
2024/04/09 01:30:05;;;;;;;;;;;;;;;18.51;47.06;96208.20;109089;1275;25014;-89
2024/04/09 01:32:32;;;;;;;;;;;;;;;18.49;47.04;96205.48;109040;1267;124177;-88
2024/04/09 01:35:06;;;;;;;;;;;;;;;18.48;46.88;96204.45;109071;1276;22501;-89
2024/04/09 01:37:33;;;;;;;;;;;;;;;18.48;46.83;96201.30;109032;1276;124220;-89
2024/04/09 01:39:59;;;;;;;;;;;;;;;18.46;46.81;96202.11;109185;1276;22565;-89
2024/04/09 01:42:26;;;;;;;;;;;;;;;18.47;46.75;96204.45;109066;1270;22932;-89
2024/04/09 01:44:52;;;;;;;;;;;;;;;18.46;46.82;96205.16;109031;1272;124027;-89
2024/04/09 01:47:18;;;;;;;;;;;;;;;18.46;46.76;96205.11;109095;1276;22536;-89
2024/04/09 01:49:46;;;;;;;;;;;;;;;18.44;46.69;96205.92;108915;1269;124544;-89
2024/04/09 01:52:13;;;;;;;;;;;;;;;18.45;46.89;96203.73;109073;1270;22709;-89
2024/04/09 01:54:43;;;;;;;;;;;;;;;18.44;46.81;96195.50;109098;1276;22517;-89
2024/04/09 01:57:10;;;;;;;;;;;;;;;18.43;46.79;96202.20;108980;1276;124102;-88
2024/04/09 01:59:36;;;;;;;;;;;;;;;18.43;46.50;96197.52;109075;1277;23287;-89
2024/04/09 02:02:03;;;;;;;;;;;;;;;18.46;46.52;96200.42;108959;1276;124096;-88
2024/04/09 02:04:30;;;;;;;;;;;;;;;18.45;46.71;96194.58;108911;1271;22575;-89
2024/04/09 02:06:57;;;;;;;;;;;;;;;18.43;46.25;96195.95;109025;1275;22511;-90
2024/04/09 02:09:25;;;;;;;;;;;;;;;18.44;46.40;96197.44;109020;1269;124214;-90
2024/04/09 02:11:52;;;;;;;;;;;;;;;18.43;46.27;96197.70;109037;1275;22507;-89
2024/04/09 02:14:18;;;;;;;;;;;;;;;18.44;46.19;96192.13;109020;1276;124491;-89
2024/04/09 02:16:45;;;;;;;;;;;;;;;18.45;46.22;96192.30;109096;1269;22526;-89
2024/04/09 02:19:12;;;;;;;;;;;;;;;18.43;46.17;96194.13;109058;1264;124624;-90
2024/04/09 02:21:38;;;;;;;;;;;;;;;18.43;46.09;96190.16;108987;1269;22546;-89
2024/04/09 02:24:05;;;;;;;;;;;;;;;18.44;46.05;96190.09;109006;1269;22526;-89
2024/04/09 02:26:33;;;;;;;;;;;;;;;18.45;45.96;96181.58;108998;1276;124105;-89
2024/04/09 02:28:59;;;;;;;;;;;;;;;18.45;45.81;96180.52;109047;1267;22503;-89
2024/04/09 02:31:27;;;;;;;;;;;;;;;18.48;45.80;96177.88;108999;1272;124194;-89
2024/04/09 02:33:53;;;;;;;;;;;;;;;18.48;45.52;96180.05;109097;1269;22523;-89
2024/04/09 02:36:20;;;;;;;;;;;;;;;18.51;45.60;96181.73;109107;1275;22524;-89
2024/04/09 02:38:48;;;;;;;;;;;;;;;18.53;45.60;96175.64;109046;1273;124073;-90
2024/04/09 02:41:16;;;;;;;;;;;;;;;18.53;45.52;96184.75;108995;1276;22519;-89
2024/04/09 02:43:43;;;;;;;;;;;;;;;18.52;45.70;96180.68;108983;1276;124414;-89
2024/04/09 02:46:09;;;;;;;;;;;;;;;18.48;45.45;96174.83;109081;1276;22483;-89
2024/04/09 02:48:36;;;;;;;;;;;;;;;18.45;45.67;96172.10;108919;1276;22823;-89
2024/04/09 02:51:05;;;;;;;;;;;;;;;18.44;45.40;96175.77;108968;1276;124033;-89
2024/04/09 02:53:35;;;;;;;;;;;;;;;18.46;45.37;96175.33;108943;1277;22556;-89
2024/04/09 02:56:04;;;;;;;;;;;;;;;18.46;45.41;96176.34;108857;1276;124040;-89
2024/04/09 02:58:31;;;;;;;;;;;;;;;18.46;45.60;96180.59;108957;1276;22489;-88
2024/04/09 03:00:57;;;;;;;;;;;;;;;18.45;45.67;96179.15;109056;1269;22477;-89
2024/04/09 03:03:24;;;;;;;;;;;;;;;18.44;45.57;96183.96;108964;1276;124078;-89
2024/04/09 03:05:51;;;;;;;;;;;;;;;18.43;45.86;96177.75;109176;1254;22761;-89
2024/04/09 03:08:17;;;;;;;;;;;;;;;18.38;45.86;96179.39;108995;1273;124070;-89
2024/04/09 03:10:44;;;;;;;;;;;;;;;18.35;45.76;96176.85;109013;1275;22496;-90
2024/04/09 03:13:11;;;;;;;;;;;;;;;18.34;45.77;96179.58;108756;1274;124173;-88
2024/04/09 03:15:37;;;;;;;;;;;;;;;18.35;45.48;96177.79;108962;1277;23856;-89
2024/04/09 03:18:04;;;;;;;;;;;;;;;18.39;45.65;96177.35;108903;1269;22537;-89
2024/04/09 03:20:30;;;;;;;;;;;;;;;18.37;45.60;96178.31;108917;1271;124311;-89
2024/04/09 03:22:56;;;;;;;;;;;;;;;18.40;45.86;96185.64;109066;1272;22647;-89
2024/04/09 03:25:23;;;;;;;;;;;;;;;18.36;45.73;96177.67;108755;1277;124231;-89
2024/04/09 03:27:50;;;;;;;;;;;;;;;18.30;47.58;96181.83;108980;1277;22537;-89
2024/04/09 03:30:16;;;;;;;;;;;;;;;18.09;48.16;96181.15;108996;1277;22638;-89
2024/04/09 03:32:43;;;;;;;;;;;;;;;17.89;48.73;96171.20;108993;1276;124087;-89
2024/04/09 03:35:09;;;;;;;;;;;;;;;17.78;49.25;96176.07;109088;1276;22524;-89
2024/04/09 03:37:35;;;;;;;;;;;;;;;17.65;49.09;96183.04;108879;1276;124227;-89
2024/04/09 03:40:02;;;;;;;;;;;;;;;17.59;48.52;96182.69;109109;1273;23737;-89
2024/04/09 03:42:29;;;;;;;;;;;;;;;17.63;48.90;96180.98;108861;1278;22534;-90
2024/04/09 03:44:55;;;;;;;;;;;;;;;17.61;48.64;96179.38;108805;1277;124065;-89
2024/04/09 03:47:21;;;;;;;;;;;;;;;17.65;48.10;96183.19;108971;1267;23784;-89
2024/04/09 03:49:48;;;;;;;;;;;;;;;17.66;49.44;96183.48;108814;1277;124354;-89
2024/04/09 03:52:14;;;;;;;;;;;;;;;17.48;50.11;96185.45;109008;1277;22549;-89
2024/04/09 03:54:41;;;;;;;;;;;;;;;17.40;50.24;96191.53;109030;1277;22544;-89
2024/04/09 03:57:07;;;;;;;;;;;;;;;17.23;51.93;96191.59;108929;1277;137685;-89
2024/04/09 03:59:33;;;;;;;;;;;;;;;16.93;52.46;96191.38;109092;1277;22510;-89
2024/04/09 04:02:00;;;;;;;;;;;;;;;16.68;53.41;96193.12;108905;1276;124039;-89
2024/04/09 04:04:26;;;;;;;;;;;;;;;16.51;52.50;96193.02;109117;1269;22487;-90
2024/04/09 04:06:53;;;;;;;;;;;;;;;16.57;54.32;96191.33;109148;1276;22495;-88
2024/04/09 04:09:23;;;;;;;;;;;;;;;16.42;54.57;96195.05;108984;1277;124073;-89
2024/04/09 04:11:50;;;;;;;;;;;;;;;16.27;54.60;96190.40;108983;1275;22719;-89
2024/04/09 04:14:17;;;;;;;;;;;;;;;16.19;55.19;96193.41;108906;1265;124055;-89
2024/04/09 04:16:43;;;;;;;;;;;;;;;16.18;54.09;96185.51;109032;1272;24203;-89
2024/04/09 04:19:10;;;;;;;;;;;;;;;16.21;55.45;96188.10;108975;1277;124360;-89
2024/04/09 04:21:36;;;;;;;;;;;;;;;16.15;56.80;96190.60;108919;1277;22526;-89
2024/04/09 04:24:03;;;;;;;;;;;;;;;16.00;57.36;96188.94;109030;1269;25250;-90
2024/04/09 04:26:29;;;;;;;;;;;;;;;15.86;57.44;96186.92;108977;1275;124272;-87
2024/04/09 04:28:56;;;;;;;;;;;;;;;15.79;57.79;96188.78;109161;1276;25340;-89
2024/04/09 04:31:26;;;;;;;;;;;;;;;15.71;57.63;96192.00;108842;1276;124187;-89
2024/04/09 04:33:53;;;;;;;;;;;;;;;15.68;58.59;96191.44;108907;1275;24236;-89
2024/04/09 04:36:20;;;;;;;;;;;;;;;15.61;58.33;96190.14;109030;1277;22533;-89
2024/04/09 04:38:47;;;;;;;;;;;;;;;15.59;58.82;96192.11;108742;1277;124286;-89
2024/04/09 04:41:13;;;;;;;;;;;;;;;15.56;59.78;96193.05;108873;1277;22545;-89
2024/04/09 04:43:41;;;;;;;;;;;;;;;15.48;60.79;96198.95;108934;1276;124214;-89
2024/04/09 04:46:07;;;;;;;;;;;;;;;15.43;60.15;96197.11;108963;1272;22511;-89
2024/04/09 04:48:34;;;;;;;;;;;;;;;15.48;60.63;96192.94;108953;1277;24364;-90
2024/04/09 04:51:00;;;;;;;;;;;;;;;15.45;60.84;96201.29;108860;1277;124059;-88
2024/04/09 04:53:27;;;;;;;;;;;;;;;15.41;60.75;96198.72;109089;1277;25400;-90
2024/04/09 04:55:53;;;;;;;;;;;;;;;15.37;61.38;96199.77;109015;1276;124159;-88
2024/04/09 04:58:20;;;;;;;;;;;;;;;15.35;62.08;96199.43;109106;1276;22545;-89
2024/04/09 05:00:46;;;;;;;;;;;;;;;15.31;62.24;96193.11;108922;1272;22565;-89
2024/04/09 05:03:13;;;;;;;;;;;;;;;15.27;61.86;96197.47;108994;1276;124288;-90
2024/04/09 05:05:39;;;;;;;;;;;;;;;15.38;62.37;96196.23;108879;1277;25402;-89
2024/04/09 05:08:06;;;;;;;;;;;;;;;15.39;62.81;96191.30;108918;1275;124095;-89
2024/04/09 05:10:32;;;;;;;;;;;;;;;15.40;63.36;96190.67;108895;1277;23161;-89
2024/04/09 05:13:00;;;;;;;;;;;;;;;15.39;63.41;96193.55;109031;1277;22490;-89
2024/04/09 05:15:26;;;;;;;;;;;;;;;15.39;63.79;96189.61;109049;1277;123923;-89
2024/04/09 05:17:53;;;;;;;;;;;;;;;15.42;63.73;96192.14;108906;1277;23200;-89
2024/04/09 05:20:25;;;;;;;;;;;;;;;15.43;64.60;96188.83;108899;1277;124200;-89
2024/04/09 05:22:52;;;;;;;;;;;;;;;15.56;59.86;96184.05;109094;1277;22490;-89
2024/04/09 05:25:18;;;;;;;;;;;;;;;15.89;59.68;96179.10;108755;1272;124424;-88
2024/04/09 05:27:45;;;;;;;;;;;;;;;16.19;58.13;96184.54;108873;1277;22496;-89
2024/04/09 05:30:11;;;;;;;;;;;;;;;16.38;61.10;96178.20;108842;1277;22518;-88
2024/04/09 05:32:39;;;;;;;;;;;;;;;16.39;61.04;96178.90;108976;1276;124066;-89
2024/04/09 05:35:06;;;;;;;;;;;;;;;16.39;62.17;96185.05;108960;1277;22492;-89
2024/04/09 05:37:33;;;;;;;;;;;;;;;16.45;57.85;96175.40;108976;1272;124249;-89
2024/04/09 05:39:59;;;;;;;;;;;;;;;16.63;57.86;96176.60;108880;1277;22704;-89
2024/04/09 05:42:26;;;;;;;;;;;;;;;16.75;56.61;96168.65;108934;1277;22564;-89
2024/04/09 05:44:52;;;;;;;;;;;;;;;16.86;58.45;96170.15;108913;1277;124277;-89
2024/04/09 05:47:19;;;;;;;;;;;;;;;16.84;60.19;96170.70;108980;1275;22547;-89
2024/04/09 05:49:46;;;;;;;;;;;;;;;16.75;61.16;96164.97;108735;1277;124224;-89
2024/04/09 05:52:13;;;;;;;;;;;;;;;16.68;59.64;96172.50;108888;1276;22518;-89
2024/04/09 05:54:40;;;;;;;;;;;;;;;16.72;57.94;96172.34;108889;1270;23225;-89
2024/04/09 05:57:07;;;;;;;;;;;;;;;16.78;59.19;96173.02;109065;1277;124049;-89
2024/04/09 05:59:34;;;;;;;;;;;;;;;16.83;58.26;96170.61;109069;1272;24199;-89
2024/04/09 06:02:00;;;;;;;;;;;;;;;16.88;57.86;96171.19;108864;1277;124672;-89
2024/04/09 06:04:28;;;;;;;;;;;;;;;16.92;59.03;96174.48;108995;1277;22508;-89
2024/04/09 06:06:55;;;;;;;;;;;;;;;16.92;58.01;96170.27;109096;1267;22539;-89
2024/04/09 06:09:22;;;;;;;;;;;;;;;16.94;61.45;96175.88;108916;1270;124169;-89
2024/04/09 06:11:49;;;;;;;;;;;;;;;16.85;61.28;96172.13;108943;1275;25436;-89
2024/04/09 06:14:15;;;;;;;;;;;;;;;16.83;59.94;96172.45;108841;1276;124162;-89
2024/04/09 06:16:42;;;;;;;;;;;;;;;16.96;59.09;96173.38;109078;1276;24265;-89
2024/04/09 06:19:08;;;;;;;;;;;;;;;17.01;62.32;96173.77;109025;1275;22522;-89
2024/04/09 06:21:35;;;;;;;;;;;;;;;16.97;63.06;96169.80;108950;1276;25452;-90
2024/04/09 06:24:01;;;;;;;;;;;;;;;16.94;63.16;96171.52;108922;1276;22537;-89
2024/04/09 06:26:27;;;;;;;;;;;;;;;16.88;64.12;96160.42;108950;1276;125049;-90
2024/04/09 06:28:54;;;;;;;;;;;;;;;16.86;65.14;96162.64;109045;1277;23958;-89
2024/04/09 06:31:20;;;;;;;;;;;;;;;16.83;65.84;96164.10;108992;1265;124212;-89
2024/04/09 06:33:49;;;;;;;;;;;;;;;16.80;66.17;96165.36;108931;1278;25259;-89
2024/04/09 06:36:16;;;;;;;;;;;;;;;16.82;65.34;96167.34;109033;1272;22494;-89
2024/04/09 06:38:43;;;;;;;;;;;;;;;16.84;66.20;96166.86;108896;1277;124206;-89
2024/04/09 06:41:10;;;;;;;;;;;;;;;16.79;66.68;96166.95;109030;1268;23338;-89
2024/04/09 06:43:37;;;;;;;;;;;;;;;16.73;67.44;96170.73;108897;1278;124233;-88
2024/04/09 06:46:04;;;;;;;;;;;;;;;16.67;67.32;96168.36;109004;1269;22496;-89
2024/04/09 06:48:32;;;;;;;;;;;;;;;16.61;67.66;96169.89;108998;1269;23852;-89
2024/04/09 06:50:59;;;;;;;;;;;;;;;16.54;67.76;96165.19;108990;1265;124074;-89
2024/04/09 06:53:25;;;;;;;;;;;;;;;16.56;65.30;96162.73;109123;1276;22496;-89
2024/04/09 06:55:52;;;;;;;;;;;;;;;16.70;65.68;96162.58;109024;1269;124646;-89
2024/04/09 06:58:20;;;;;;;;;;;;;;;16.79;68.12;96156.73;108943;1272;24834;-90
2024/04/09 07:00:47;;;;;;;;;;;;;;;16.85;66.43;96157.89;109042;1275;22530;-88
2024/04/09 07:03:13;;;;;;;;;;;;;;;16.96;66.90;96161.17;108920;1276;124290;-89
2024/04/09 07:05:40;;;;;;;;;;;;;;;17.01;66.69;96157.83;109089;1275;22497;-89
2024/04/09 07:08:07;;;;;;;;;;;;;;;17.10;63.74;96152.30;108905;1276;124357;-89
2024/04/09 07:10:34;;;;;;;;;;;;;;;17.23;65.93;96150.49;109049;1275;22561;-88
2024/04/09 07:13:00;;;;;;;;;;;;;;;17.28;65.04;96149.82;109077;1269;22506;-90
2024/04/09 07:15:27;;;;;;;;;;;;;;;17.38;63.11;96152.91;108886;1269;123985;-89
2024/04/09 07:17:54;;;;;;;;;;;;;;;17.53;62.77;96142.61;109064;1276;22509;-88
2024/04/09 07:20:20;;;;;;;;;;;;;;;17.66;64.88;96144.84;109028;1276;124931;-88
2024/04/09 07:22:47;;;;;;;;;;;;;;;17.75;63.02;96139.95;109135;1276;26929;-88
2024/04/09 07:25:14;;;;;;;;;;;;;;;17.80;64.07;96142.48;108953;1276;124169;-88
2024/04/09 07:27:41;;;;;;;;;;;;;;;17.86;62.85;96140.95;108970;1276;23217;-89
2024/04/09 07:30:07;;;;;;;;;;;;;;;17.96;62.34;96144.06;109073;1269;22491;-88
2024/04/09 07:32:34;;;;;;;;;;;;;;;18.04;62.92;96138.92;108994;1266;124525;-88
2024/04/09 07:35:00;;;;;;;;;;;;;;;18.07;62.72;96132.23;109116;1269;22585;-88
2024/04/09 07:37:27;;;;;;;;;;;;;;;18.14;63.44;96134.63;109078;1276;124216;-89
2024/04/09 07:39:53;;;;;;;;;;;;;;;18.22;60.75;96129.34;109132;1269;22496;-89
2024/04/09 07:42:20;;;;;;;;;;;;;;;18.32;61.80;96124.84;109113;1276;24984;-88
2024/04/09 07:44:46;;;;;;;;;;;;;;;18.42;60.75;96126.17;109012;1275;124511;-88
2024/04/09 07:47:14;;;;;;;;;;;;;;;18.56;60.04;96129.35;109123;1276;22531;-89
2024/04/09 07:49:40;;;;;;;;;;;;;;;18.70;57.06;96132.61;108897;1276;124481;-88
2024/04/09 07:52:07;;;;;;;;;;;;;;;18.82;57.77;96124.06;109128;1269;22670;-88
2024/04/09 07:54:33;;;;;;;;;;;;;;;18.94;56.21;96114.52;108935;1276;22494;-89
2024/04/09 07:56:59;;;;;;;;;;;;;;;19.11;55.68;96122.76;108975;1272;124533;-88
2024/04/09 07:59:26;;;;;;;;;;;;;;;19.24;54.55;96126.44;108924;1276;22549;-89
2024/04/09 08:01:52;;;;;;;;;;;;;;;19.35;53.00;96130.16;108909;1277;124445;-89
2024/04/09 08:04:19;;;;;;;;;;;;;;;19.51;51.72;96134.33;109097;1275;22500;-89
2024/04/09 08:06:46;;;;;;;;;;;;;;;19.67;51.73;96135.56;108947;1275;23497;-89
2024/04/09 08:09:12;;;;;;;;;;;;;;;19.81;52.09;96137.41;109003;1269;124205;-89
2024/04/09 08:11:42;;;;;;;;;;;;;;;19.91;50.06;96137.07;109066;1276;22605;-89
2024/04/09 08:14:09;;;;;;;;;;;;;;;20.04;49.31;96134.26;109000;1276;124959;-89
2024/04/09 08:16:36;;;;;;;;;;;;;;;20.13;49.61;96127.65;109143;1276;22490;-89
2024/04/09 08:19:03;;;;;;;;;;;;;;;20.22;49.38;96124.85;108973;1276;22531;-89
2024/04/09 08:21:30;;;;;;;;;;;;;;;20.28;49.59;96127.64;108878;1277;124146;-89
2024/04/09 08:23:57;;;;;;;;;;;;;;;20.34;48.99;96122.61;109077;1275;22497;-88
2024/04/09 08:26:28;;;;;;;;;;;;;;;20.40;48.55;96117.33;109028;1276;125082;-89
2024/04/09 08:28:54;;;;;;;;;;;;;;;20.47;48.71;96119.41;109110;1276;22480;-89
2024/04/09 08:31:27;;;;;;;;;;;;;;;20.52;47.38;96120.85;108995;1275;125035;-89
2024/04/09 08:33:54;;;;;;;;;;;;;;;20.60;47.82;96110.92;108975;1275;23643;-89
2024/04/09 08:36:20;;;;;;;;;;;;;;;20.64;48.26;96119.03;108990;1277;23397;-90
2024/04/09 08:38:47;;;;;;;;;;;;;;;20.64;46.90;96108.73;108904;1277;124172;-90
2024/04/09 08:41:16;;;;;;;;;;;;;;;20.65;47.04;96101.25;108994;1277;24204;-89
2024/04/09 08:43:42;;;;;;;;;;;;;;;20.73;48.38;96106.28;109009;1276;124259;-89
2024/04/09 08:46:09;;;;;;;;;;;;;;;20.81;47.92;96103.80;108993;1274;23548;-90
2024/04/09 08:48:39;;;;;;;;;;;;;;;20.88;46.01;96109.42;108985;1276;22605;-89
2024/04/09 08:51:06;;;;;;;;;;;;;;;20.94;47.35;96109.02;108992;1276;124230;-89
2024/04/09 08:53:35;;;;;;;;;;;;;;;21.00;47.35;96104.02;109085;1269;22530;-89
2024/04/09 08:56:01;;;;;;;;;;;;;;;21.07;45.82;96103.20;108873;1269;123750;-90
2024/04/09 08:58:28;;;;;;;;;;;;;;;21.13;47.04;96102.86;108983;1275;22531;-90
2024/04/09 09:00:55;;;;;;;;;;;;;;;21.20;44.92;96104.93;108970;1276;23756;-89
2024/04/09 09:03:21;;;;;;;;;;;;;;;21.33;45.73;96110.15;108999;1276;124753;-89
2024/04/09 09:06:00;;;;;;;;;;;;;;;21.42;43.60;96106.34;109097;1272;23896;-89
2024/04/09 09:08:37;;;;;;;;;;;;;;;21.47;43.94;96103.13;108903;1276;124134;-89
2024/04/09 09:11:05;;;;;;;;;;;;;;;21.54;44.65;96104.71;109152;1276;22519;-90
2024/04/09 09:13:31;;;;;;;;;;;;;;;21.62;43.51;96107.28;109010;1275;124609;-90
2024/04/09 09:15:58;;;;;;;;;;;;;;;21.70;43.65;96101.45;109122;1276;22515;-89
2024/04/09 09:18:25;;;;;;;;;;;;;;;21.79;42.17;96105.13;109190;1276;22492;-89
2024/04/09 09:21:01;;;;;;;;;;;;;;;21.86;42.67;96107.80;108864;1276;124942;-88
2024/04/09 09:23:28;;;;;;;;;;;;;;;21.96;44.10;96105.34;109046;1277;22565;-88
2024/04/09 09:25:55;;;;;;;;;;;;;;;22.02;42.96;96112.61;108814;1277;124363;-89
2024/04/09 09:28:22;;;;;;;;;;;;;;;22.06;43.58;96106.30;108940;1277;22495;-89
2024/04/09 09:30:48;;;;;;;;;;;;;;;22.15;44.07;96100.40;108907;1278;22526;-89
2024/04/09 09:33:18;;;;;;;;;;;;;;;22.23;43.29;96104.64;109065;1268;124513;-89
2024/04/09 09:35:48;;;;;;;;;;;;;;;22.32;43.92;96105.14;109107;1276;22543;-90
2024/04/09 09:38:21;;;;;;;;;;;;;;;22.39;42.66;96111.23;108997;1277;124013;-89
2024/04/09 09:40:48;;;;;;;;;;;;;;;22.45;41.66;96120.05;108967;1277;22555;-89
2024/04/09 09:43:16;;;;;;;;;;;;;;;22.46;40.37;96113.54;108661;1276;124732;-89
2024/04/09 09:45:43;;;;;;;;;;;;;;;22.47;40.85;96106.39;109035;1274;25412;-89
2024/04/09 09:48:10;;;;;;;;;;;;;;;22.55;42.59;96102.41;109070;1276;25193;-90
2024/04/09 09:50:36;;;;;;;;;;;;;;;22.65;42.02;96099.14;108947;1277;124351;-89
2024/04/09 09:53:03;;;;;;;;;;;;;;;22.73;42.16;96102.30;108967;1277;22551;-89
2024/04/09 09:55:29;;;;;;;;;;;;;;;22.80;42.50;96094.33;108985;1270;124346;-89
2024/04/09 09:57:56;;;;;;;;;;;;;;;22.89;43.39;96096.29;108965;1277;22555;-90
2024/04/09 10:00:22;;;;;;;;;;;;;;;22.95;41.18;96098.10;108991;1272;22539;-90
2024/04/09 10:02:48;;;;;;;;;;;;;;;22.98;41.79;96093.75;108970;1276;124830;-90
2024/04/09 10:05:15;;;;;;;;;;;;;;;23.03;41.49;96095.16;109051;1266;24244;-90
2024/04/09 10:07:43;;;;;;;;;;;;;;;23.12;41.58;96100.24;109004;1275;124424;-90
2024/04/09 10:10:10;;;;;;;;;;;;;;;23.20;40.77;96091.74;109129;1276;25398;-90
2024/04/09 10:12:37;;;;;;;;;;;;;;;23.24;40.05;96089.61;109088;1276;22521;-90
2024/04/09 10:15:04;;;;;;;;;;;;;;;23.26;40.96;96095.13;108841;1276;124198;-89
2024/04/09 10:17:50;;;;;;;;;;;;;;;23.34;38.14;96104.18;109032;1276;22538;-90
2024/04/09 10:20:20;;;;;;;;;;;;;;;23.42;37.83;96101.61;108870;1269;177421;-89
2024/04/09 10:22:47;;;;;;;;;;;;;;;23.45;37.02;96098.91;108920;1276;25393;-90
2024/04/09 10:25:18;;;;;;;;;;;;;;;23.50;35.97;96097.67;108875;1276;124373;-90
2024/04/09 10:27:44;;;;;;;;;;;;;;;23.52;37.58;96098.88;109104;1274;22544;-90
2024/04/09 10:30:12;;;;;;;;;;;;;;;23.58;37.28;96089.70;108931;1277;22625;-89
2024/04/09 10:32:39;;;;;;;;;;;;;;;23.64;38.20;96088.05;108937;1275;124773;-89
2024/04/09 10:35:09;;;;;;;;;;;;;;;23.70;37.39;96082.77;108985;1277;22483;-90
2024/04/09 10:37:35;;;;;;;;;;;;;;;23.74;36.86;96084.17;108933;1272;124901;-89
2024/04/09 10:40:02;;;;;;;;;;;;;;;23.80;35.17;96080.51;108970;1270;22516;-90
2024/04/09 10:42:28;;;;;;;;;;;;;;;23.84;34.90;96077.77;108919;1277;24742;-89
2024/04/09 10:44:55;;;;;;;;;;;;;;;23.88;35.01;96073.71;108943;1273;124693;-90
2024/04/09 10:47:21;;;;;;;;;;;;;;;23.92;35.61;96070.77;108925;1269;22484;-90
2024/04/09 10:49:48;;;;;;;;;;;;;;;23.98;35.89;96069.16;109008;1277;124311;-90
2024/04/09 10:52:14;;;;;;;;;;;;;;;24.06;35.06;96061.41;108971;1277;22493;-90
2024/04/09 10:54:41;;;;;;;;;;;;;;;24.09;34.61;96061.14;109058;1277;22658;-90
2024/04/09 10:57:07;;;;;;;;;;;;;;;24.07;34.44;96065.80;108892;1277;124356;-91
2024/04/09 10:59:33;;;;;;;;;;;;;;;24.09;34.79;96067.98;108983;1269;24087;-90
2024/04/09 11:02:00;;;;;;;;;;;;;;;24.14;35.69;96060.41;108797;1273;124064;-90
2024/04/09 11:04:26;;;;;;;;;;;;;;;24.21;36.58;96057.17;108971;1275;23407;-91
2024/04/09 11:06:53;;;;;;;;;;;;;;;24.28;35.13;96057.89;109085;1277;25403;-90
2024/04/09 11:09:20;;;;;;;;;;;;;;;24.30;34.14;96049.51;108898;1277;124079;-90
2024/04/09 11:11:47;;;;;;;;;;;;;;;24.30;34.07;96049.02;108952;1278;23139;-90
2024/04/09 11:14:13;;;;;;;;;;;;;;;24.29;34.25;96038.66;108740;1277;124234;-89
2024/04/09 11:16:46;;;;;;;;;;;;;;;24.31;34.90;96040.63;108876;1276;22595;-90
2024/04/09 11:19:18;;;;;;;;;;;;;;;24.40;35.10;96038.91;108993;1276;124938;-90
2024/04/09 11:21:45;;;;;;;;;;;;;;;24.46;33.58;96043.16;109136;1276;22507;-90
2024/04/09 11:24:12;;;;;;;;;;;;;;;24.51;33.61;96036.05;109209;1276;22526;-89
2024/04/09 11:26:40;;;;;;;;;;;;;;;24.53;34.92;96026.52;109074;1271;124714;-90
2024/04/09 11:29:17;;;;;;;;;;;;;;;24.57;35.52;96026.13;109193;1276;24341;-91
2024/04/09 11:31:44;;;;;;;;;;;;;;;24.62;35.79;96026.52;108952;1275;125380;-90
2024/04/09 11:34:10;;;;;;;;;;;;;;;24.70;35.11;96029.20;109083;1276;24226;-89
2024/04/09 11:36:37;;;;;;;;;;;;;;;24.80;36.13;96028.42;109089;1276;22532;-89
2024/04/09 11:39:03;;;;;;;;;;;;;;;24.86;36.06;96022.29;108837;1276;124270;-90
2024/04/09 11:41:29;;;;;;;;;;;;;;;24.94;34.44;96027.17;109113;1276;23170;-90
2024/04/09 11:43:59;;;;;;;;;;;;;;;24.98;34.11;96022.18;108942;1275;124136;-89
2024/04/09 11:46:25;;;;;;;;;;;;;;;25.04;35.34;96013.75;108943;1276;24201;-90
2024/04/09 11:48:52;;;;;;;;;;;;;;;25.07;34.33;96014.84;109080;1276;22506;-90
2024/04/09 11:51:18;;;;;;;;;;;;;;;25.11;35.00;96015.38;108934;1276;124776;-89
2024/04/09 11:53:45;;;;;;;;;;;;;;;25.12;34.16;96011.64;109077;1276;22534;-90
2024/04/09 11:56:16;;;;;;;;;;;;;;;25.10;33.25;96008.42;108834;1276;124096;-89
2024/04/09 11:58:47;;;;;;;;;;;;;;;25.04;33.51;96003.01;109117;1276;24879;-90
2024/04/09 12:01:14;;;;;;;;;;;;;;;25.04;33.47;96003.69;108869;1277;125459;-90
2024/04/09 12:03:40;;;;;;;;;;;;;;;25.08;34.15;96000.80;109026;1274;24831;-91
2024/04/09 12:06:06;;;;;;;;;;;;;;;25.15;34.37;95992.73;109086;1276;22634;-90
2024/04/09 12:08:33;;;;;;;;;;;;;;;25.20;35.26;95987.99;108861;1263;124860;-90
2024/04/09 12:11:00;;;;;;;;;;;;;;;25.25;33.73;95992.16;108978;1269;22500;-88
2024/04/09 12:13:28;;;;;;;;;;;;;;;25.30;33.76;95988.36;108955;1275;124832;-88
2024/04/09 12:15:55;;;;;;;;;;;;;;;25.34;33.72;95980.49;108820;1275;22594;-88
2024/04/09 12:18:22;;;;;;;;;;;;;;;25.39;34.29;95980.77;108834;1270;22507;-88
2024/04/09 12:20:48;;;;;;;;;;;;;;;25.38;34.00;95977.30;108866;1275;124107;-88
2024/04/09 12:23:14;;;;;;;;;;;;;;;25.39;33.56;95977.56;109046;1276;22563;-88
2024/04/09 12:25:41;;;;;;;;;;;;;;;25.43;33.19;95980.11;108834;1271;124205;-89
2024/04/09 12:28:07;;;;;;;;;;;;;;;25.49;33.85;95976.09;108962;1276;24016;-88
2024/04/09 12:30:34;;;;;;;;;;;;;;;25.54;34.03;95979.43;109125;1271;22563;-88
2024/04/09 12:33:00;;;;;;;;;;;;;;;25.56;32.98;95974.05;108903;1270;124010;-88